Terminal Aerodrome Forecast
Issued by NWS Binghamton, NY

Home | Current Version | Previous Version | Text Only | Print | Product List | Glossary On
Versions: 1 2 3 4 5 6 7 8 9 10 11 12 13 14 15 16 17 18 19 20 21 22 23
000
FTUS41 KBGM 221400 AAA
TAFBGM
TAF AMD
KBGM 221404Z 2214/2312 03011KT P6SM OVC009
      TEMPO 2214/2216 SCT009 OVC014
     FM221600 36012KT P6SM SCT006 OVC015
     FM230000 34012G20KT 5SM -SHRA BR BKN006 OVC012=

USA.gov is the U.S. government's official web portal to all federal, state and local government web resources and services.